sensor_id;sensor_type;location;lat;lon;timestamp;pressure;altitude;pressure_sealevel;temperature;humidity
6680;BME280;3376;42.664;23.346;2023-10-09T00:01:50;95012.63;;;18.90;67.03
6680;BME280;3376;42.664;23.346;2023-10-09T00:04:18;95013.22;;;18.92;67.36
6680;BME280;3376;42.664;23.346;2023-10-09T00:06:46;95016.84;;;18.91;67.09
6680;BME280;3376;42.664;23.346;2023-10-09T00:09:14;95022.53;;;18.88;67.38
6680;BME280;3376;42.664;23.346;2023-10-09T00:11:58;95023.38;;;18.82;67.42
6680;BME280;3376;42.664;23.346;2023-10-09T00:14:26;95029.66;;;18.81;67.59
6680;BME280;3376;42.664;23.346;2023-10-09T00:16:56;95022.63;;;18.75;67.57
6680;BME280;3376;42.664;23.346;2023-10-09T00:19:30;95021.88;;;18.68;68.06
6680;BME280;3376;42.664;23.346;2023-10-09T00:21:58;95017.03;;;18.65;67.97
6680;BME280;3376;42.664;23.346;2023-10-09T00:24:31;95017.06;;;18.58;68.18
6680;BME280;3376;42.664;23.346;2023-10-09T00:27:00;95001.28;;;18.65;68.05
6680;BME280;3376;42.664;23.346;2023-10-09T00:29:37;95027.97;;;18.62;68.27
6680;BME280;3376;42.664;23.346;2023-10-09T00:32:10;95030.19;;;18.58;68.26
6680;BME280;3376;42.664;23.346;2023-10-09T00:34:48;95012.03;;;18.57;68.47
6680;BME280;3376;42.664;23.346;2023-10-09T00:37:16;95010.69;;;18.48;68.38
6680;BME280;3376;42.664;23.346;2023-10-09T00:39:48;95021.59;;;18.45;68.47
6680;BME280;3376;42.664;23.346;2023-10-09T00:42:23;95001.53;;;18.19;69.17
6680;BME280;3376;42.664;23.346;2023-10-09T00:44:55;95012.84;;;18.20;69.38
6680;BME280;3376;42.664;23.346;2023-10-09T00:47:22;95015.31;;;18.15;69.76
6680;BME280;3376;42.664;23.346;2023-10-09T00:49:54;95021.78;;;18.06;69.86
6680;BME280;3376;42.664;23.346;2023-10-09T00:52:27;95037.09;;;18.09;69.93
6680;BME280;3376;42.664;23.346;2023-10-09T00:55:02;95039.94;;;18.07;69.95
6680;BME280;3376;42.664;23.346;2023-10-09T00:57:41;94985.06;;;17.68;70.15
6680;BME280;3376;42.664;23.346;2023-10-09T01:00:16;95012.59;;;17.90;69.63
6680;BME280;3376;42.664;23.346;2023-10-09T01:02:57;95052.09;;;17.95;70.08
6680;BME280;3376;42.664;23.346;2023-10-09T01:05:37;95049.84;;;17.99;69.57
6680;BME280;3376;42.664;23.346;2023-10-09T01:08:11;95050.69;;;17.93;69.66
6680;BME280;3376;42.664;23.346;2023-10-09T01:10:50;95065.84;;;17.84;69.85
6680;BME280;3376;42.664;23.346;2023-10-09T01:13:23;95071.28;;;17.76;70.00
6680;BME280;3376;42.664;23.346;2023-10-09T01:16:06;95033.59;;;17.77;69.83
6680;BME280;3376;42.664;23.346;2023-10-09T01:18:38;95036.91;;;17.53;69.83
6680;BME280;3376;42.664;23.346;2023-10-09T01:21:08;95053.63;;;17.52;70.46
6680;BME280;3376;42.664;23.346;2023-10-09T01:23:40;95065.88;;;17.45;70.09
6680;BME280;3376;42.664;23.346;2023-10-09T01:26:24;95086.06;;;17.51;69.43
6680;BME280;3376;42.664;23.346;2023-10-09T01:28:51;95085.25;;;17.50;68.90
6680;BME280;3376;42.664;23.346;2023-10-09T01:31:23;95073.34;;;17.35;69.53
6680;BME280;3376;42.664;23.346;2023-10-09T01:33:51;95073.78;;;17.25;69.74
6680;BME280;3376;42.664;23.346;2023-10-09T01:36:19;95076.19;;;17.27;69.14
6680;BME280;3376;42.664;23.346;2023-10-09T01:38:59;95078.22;;;17.12;70.42
6680;BME280;3376;42.664;23.346;2023-10-09T01:41:26;95097.34;;;17.06;70.38
6680;BME280;3376;42.664;23.346;2023-10-09T01:43:53;95099.94;;;16.99;71.16
6680;BME280;3376;42.664;23.346;2023-10-09T01:46:26;95094.50;;;16.88;71.17
6680;BME280;3376;42.664;23.346;2023-10-09T01:48:53;95108.19;;;16.83;70.84
6680;BME280;3376;42.664;23.346;2023-10-09T01:51:20;95117.84;;;16.83;71.32
6680;BME280;3376;42.664;23.346;2023-10-09T01:53:47;95108.38;;;16.69;71.67
6680;BME280;3376;42.664;23.346;2023-10-09T01:56:21;95103.75;;;16.64;72.20
6680;BME280;3376;42.664;23.346;2023-10-09T01:58:48;95117.59;;;16.65;72.01
6680;BME280;3376;42.664;23.346;2023-10-09T02:01:16;95134.69;;;16.54;72.78
6680;BME280;3376;42.664;23.346;2023-10-09T02:03:42;95131.84;;;16.49;72.61
6680;BME280;3376;42.664;23.346;2023-10-09T02:06:10;95109.69;;;16.45;72.76
6680;BME280;3376;42.664;23.346;2023-10-09T02:09:00;95116.50;;;16.33;72.41
6680;BME280;3376;42.664;23.346;2023-10-09T02:11:28;95133.75;;;16.27;72.85
6680;BME280;3376;42.664;23.346;2023-10-09T02:14:10;95136.97;;;16.23;73.85
6680;BME280;3376;42.664;23.346;2023-10-09T02:16:46;95152.69;;;16.29;73.52
6680;BME280;3376;42.664;23.346;2023-10-09T02:19:29;95152.88;;;16.28;73.38
6680;BME280;3376;42.664;23.346;2023-10-09T02:22:00;95146.41;;;16.24;72.95
6680;BME280;3376;42.664;23.346;2023-10-09T02:24:28;95149.41;;;16.21;72.53
6680;BME280;3376;42.664;23.346;2023-10-09T02:27:17;95148.97;;;16.11;73.07
6680;BME280;3376;42.664;23.346;2023-10-09T02:30:06;95139.22;;;15.92;72.98
6680;BME280;3376;42.664;23.346;2023-10-09T02:32:44;95166.41;;;15.97;73.49
6680;BME280;3376;42.664;23.346;2023-10-09T02:35:14;95156.72;;;15.98;73.15
6680;BME280;3376;42.664;23.346;2023-10-09T02:37:54;95160.56;;;15.95;73.45
6680;BME280;3376;42.664;23.346;2023-10-09T02:40:21;95159.69;;;15.88;74.15
6680;BME280;3376;42.664;23.346;2023-10-09T02:42:54;95148.81;;;15.85;74.05
6680;BME280;3376;42.664;23.346;2023-10-09T02:45:21;95154.06;;;15.85;73.94
6680;BME280;3376;42.664;23.346;2023-10-09T02:47:54;95143.53;;;15.72;74.68
6680;BME280;3376;42.664;23.346;2023-10-09T02:50:22;95155.16;;;15.69;75.08
6680;BME280;3376;42.664;23.346;2023-10-09T02:52:53;95175.84;;;15.71;74.16
6680;BME280;3376;42.664;23.346;2023-10-09T02:55:25;95164.56;;;15.64;74.81
6680;BME280;3376;42.664;23.346;2023-10-09T02:57:55;95181.66;;;15.66;74.36
6680;BME280;3376;42.664;23.346;2023-10-09T03:00:31;95170.25;;;15.46;74.63
6680;BME280;3376;42.664;23.346;2023-10-09T03:03:02;95186.78;;;15.53;75.14
6680;BME280;3376;42.664;23.346;2023-10-09T03:05:30;95186.91;;;15.45;75.15
6680;BME280;3376;42.664;23.346;2023-10-09T03:07:56;95176.66;;;15.44;75.51
6680;BME280;3376;42.664;23.346;2023-10-09T03:10:24;95179.38;;;15.36;75.14
6680;BME280;3376;42.664;23.346;2023-10-09T03:12:52;95191.09;;;15.40;74.86
6680;BME280;3376;42.664;23.346;2023-10-09T03:15:21;95178.88;;;15.25;74.82
6680;BME280;3376;42.664;23.346;2023-10-09T03:17:48;95185.25;;;15.16;75.64
6680;BME280;3376;42.664;23.346;2023-10-09T03:20:15;95192.69;;;15.19;74.75
6680;BME280;3376;42.664;23.346;2023-10-09T03:22:43;95203.03;;;15.06;75.46
6680;BME280;3376;42.664;23.346;2023-10-09T03:25:13;95208.00;;;15.01;75.80
6680;BME280;3376;42.664;23.346;2023-10-09T03:27:42;95205.78;;;14.84;76.00
6680;BME280;3376;42.664;23.346;2023-10-09T03:30:11;95219.16;;;14.95;75.86
6680;BME280;3376;42.664;23.346;2023-10-09T03:32:44;95210.63;;;14.87;75.90
6680;BME280;3376;42.664;23.346;2023-10-09T03:35:16;95110.78;;;14.22;75.60
6680;BME280;3376;42.664;23.346;2023-10-09T03:37:53;95226.34;;;14.93;74.93
6680;BME280;3376;42.664;23.346;2023-10-09T03:40:23;95214.00;;;14.81;75.58
6680;BME280;3376;42.664;23.346;2023-10-09T03:42:50;95219.66;;;14.70;76.50
6680;BME280;3376;42.664;23.346;2023-10-09T03:45:19;95219.59;;;14.63;75.99
6680;BME280;3376;42.664;23.346;2023-10-09T03:47:54;95224.91;;;14.55;75.25
6680;BME280;3376;42.664;23.346;2023-10-09T03:50:28;95225.19;;;14.60;75.49
6680;BME280;3376;42.664;23.346;2023-10-09T03:53:02;95219.97;;;14.60;75.85
6680;BME280;3376;42.664;23.346;2023-10-09T03:55:32;95230.28;;;14.54;75.78
6680;BME280;3376;42.664;23.346;2023-10-09T03:57:58;95236.97;;;14.56;74.69
6680;BME280;3376;42.664;23.346;2023-10-09T04:00:28;95244.41;;;14.59;74.82
6680;BME280;3376;42.664;23.346;2023-10-09T04:02:57;95240.28;;;14.50;75.47
6680;BME280;3376;42.664;23.346;2023-10-09T04:05:25;95234.47;;;14.48;74.99
6680;BME280;3376;42.664;23.346;2023-10-09T04:07:54;95247.84;;;14.45;75.54
6680;BME280;3376;42.664;23.346;2023-10-09T04:10:24;95245.97;;;14.39;75.62
6680;BME280;3376;42.664;23.346;2023-10-09T04:13:09;95244.53;;;14.37;76.73
6680;BME280;3376;42.664;23.346;2023-10-09T04:15:42;95228.09;;;14.36;76.43
6680;BME280;3376;42.664;23.346;2023-10-09T04:18:10;95216.78;;;14.29;75.42
6680;BME280;3376;42.664;23.346;2023-10-09T04:20:42;95238.59;;;14.28;75.22
6680;BME280;3376;42.664;23.346;2023-10-09T04:23:41;95225.38;;;14.30;75.43
6680;BME280;3376;42.664;23.346;2023-10-09T04:26:46;95206.22;;;14.08;73.50
6680;BME280;3376;42.664;23.346;2023-10-09T04:29:15;95247.31;;;14.21;73.19
6680;BME280;3376;42.664;23.346;2023-10-09T04:31:49;95246.94;;;14.24;72.43
6680;BME280;3376;42.664;23.346;2023-10-09T04:34:18;95262.75;;;14.22;71.81
6680;BME280;3376;42.664;23.346;2023-10-09T04:36:48;95251.41;;;14.15;71.32
6680;BME280;3376;42.664;23.346;2023-10-09T04:42:01;95224.56;;;14.00;71.55
6680;BME280;3376;42.664;23.346;2023-10-09T04:45:02;95239.41;;;14.14;70.12
6680;BME280;3376;42.664;23.346;2023-10-09T04:47:58;95232.91;;;14.10;71.80
6680;BME280;3376;42.664;23.346;2023-10-09T04:50:33;95229.75;;;14.14;71.04
6680;BME280;3376;42.664;23.346;2023-10-09T04:53:12;95216.72;;;14.14;70.59
6680;BME280;3376;42.664;23.346;2023-10-09T04:55:50;95245.44;;;14.29;69.90
6680;BME280;3376;42.664;23.346;2023-10-09T04:58:21;95240.84;;;14.31;68.46
6680;BME280;3376;42.664;23.346;2023-10-09T05:00:52;95244.34;;;14.38;67.40
6680;BME280;3376;42.664;23.346;2023-10-09T05:03:39;95240.72;;;14.25;67.48
6680;BME280;3376;42.664;23.346;2023-10-09T05:06:19;95264.13;;;14.33;66.15
6680;BME280;3376;42.664;23.346;2023-10-09T05:09:03;95261.88;;;14.44;65.57
6680;BME280;3376;42.664;23.346;2023-10-09T05:11:38;95260.63;;;14.40;64.98
6680;BME280;3376;42.664;23.346;2023-10-09T05:14:20;95251.63;;;14.28;64.35
6680;BME280;3376;42.664;23.346;2023-10-09T05:17:04;95264.84;;;14.41;64.14
6680;BME280;3376;42.664;23.346;2023-10-09T05:19:34;95280.03;;;14.52;64.13
6680;BME280;3376;42.664;23.346;2023-10-09T05:22:42;95280.66;;;14.69;63.63
6680;BME280;3376;42.664;23.346;2023-10-09T05:25:22;95281.25;;;14.85;62.34
6680;BME280;3376;42.664;23.346;2023-10-09T05:28:17;95282.66;;;15.02;61.42
6680;BME280;3376;42.664;23.346;2023-10-09T05:33:55;95285.66;;;15.20;60.99
6680;BME280;3376;42.664;23.346;2023-10-09T05:36:26;95299.06;;;15.32;59.17
6680;BME280;3376;42.664;23.346;2023-10-09T05:39:02;95302.81;;;15.29;58.21
6680;BME280;3376;42.664;23.346;2023-10-09T05:41:47;95307.59;;;15.41;57.98
6680;BME280;3376;42.664;23.346;2023-10-09T05:44:18;95319.09;;;15.46;57.68
6680;BME280;3376;42.664;23.346;2023-10-09T05:47:03;95315.19;;;15.57;56.82
6680;BME280;3376;42.664;23.346;2023-10-09T05:49:47;95319.53;;;15.71;56.65
6680;BME280;3376;42.664;23.346;2023-10-09T05:52:27;95317.59;;;15.79;56.20
6680;BME280;3376;42.664;23.346;2023-10-09T05:55:28;95316.72;;;15.93;55.18
6680;BME280;3376;42.664;23.346;2023-10-09T05:58:13;95324.84;;;16.05;54.46
6680;BME280;3376;42.664;23.346;2023-10-09T06:01:05;95339.06;;;16.23;52.86
6680;BME280;3376;42.664;23.346;2023-10-09T06:04:05;95340.94;;;16.29;53.14
6680;BME280;3376;42.664;23.346;2023-10-09T06:06:41;95329.75;;;16.42;51.05
6680;BME280;3376;42.664;23.346;2023-10-09T06:09:12;95354.19;;;16.49;52.00
6680;BME280;3376;42.664;23.346;2023-10-09T06:11:57;95347.63;;;16.60;50.71
6680;BME280;3376;42.664;23.346;2023-10-09T06:14:41;95349.09;;;16.69;50.24
6680;BME280;3376;42.664;23.346;2023-10-09T06:17:24;95365.28;;;16.85;50.23
6680;BME280;3376;42.664;23.346;2023-10-09T06:19:53;95367.97;;;16.98;49.46
6680;BME280;3376;42.664;23.346;2023-10-09T06:22:37;95369.63;;;17.12;48.38
6680;BME280;3376;42.664;23.346;2023-10-09T06:25:21;95363.31;;;17.34;47.49
6680;BME280;3376;42.664;23.346;2023-10-09T06:27:53;95367.84;;;17.19;47.44
6680;BME280;3376;42.664;23.346;2023-10-09T06:30:22;95372.72;;;17.22;47.31
6680;BME280;3376;42.664;23.346;2023-10-09T06:32:53;95368.81;;;17.46;47.32
6680;BME280;3376;42.664;23.346;2023-10-09T06:35:45;95358.16;;;17.54;44.85
6680;BME280;3376;42.664;23.346;2023-10-09T06:38:19;95361.81;;;17.66;45.66
6680;BME280;3376;42.664;23.346;2023-10-09T06:40:49;95375.59;;;18.01;44.83
6680;BME280;3376;42.664;23.346;2023-10-09T06:43:43;95362.09;;;18.17;44.50
6680;BME280;3376;42.664;23.346;2023-10-09T06:46:16;95369.56;;;18.26;43.72
6680;BME280;3376;42.664;23.346;2023-10-09T06:49:17;95374.78;;;18.72;46.59
6680;BME280;3376;42.664;23.346;2023-10-09T06:51:58;95371.41;;;19.35;43.47
6680;BME280;3376;42.664;23.346;2023-10-09T06:54:40;95380.13;;;19.36;40.50
6680;BME280;3376;42.664;23.346;2023-10-09T06:57:15;95374.06;;;19.22;40.63
6680;BME280;3376;42.664;23.346;2023-10-09T07:00:03;95382.75;;;19.36;40.11
6680;BME280;3376;42.664;23.346;2023-10-09T07:02:56;95379.50;;;20.09;40.67
6680;BME280;3376;42.664;23.346;2023-10-09T07:05:24;95376.00;;;19.90;39.02
6680;BME280;3376;42.664;23.346;2023-10-09T07:07:57;95381.81;;;19.61;39.13
6680;BME280;3376;42.664;23.346;2023-10-09T07:10:44;95360.34;;;19.71;38.07
6680;BME280;3376;42.664;23.346;2023-10-09T07:13:27;95373.63;;;20.14;37.44
6680;BME280;3376;42.664;23.346;2023-10-09T07:15:55;95384.25;;;20.32;36.78
6680;BME280;3376;42.664;23.346;2023-10-09T07:18:39;95381.13;;;20.66;37.44
6680;BME280;3376;42.664;23.346;2023-10-09T07:21:16;95383.91;;;20.71;35.93
6680;BME280;3376;42.664;23.346;2023-10-09T07:23:54;95373.13;;;20.97;35.19
6680;BME280;3376;42.664;23.346;2023-10-09T07:26:22;95373.47;;;21.25;34.83
6680;BME280;3376;42.664;23.346;2023-10-09T07:29:03;95396.59;;;21.41;34.28
6680;BME280;3376;42.664;23.346;2023-10-09T07:31:42;95388.47;;;21.43;34.07
6680;BME280;3376;42.664;23.346;2023-10-09T07:34:11;95392.81;;;21.37;34.36
6680;BME280;3376;42.664;23.346;2023-10-09T07:37:02;95384.84;;;21.73;33.96
6680;BME280;3376;42.664;23.346;2023-10-09T07:39:31;95376.38;;;21.53;34.42
6680;BME280;3376;42.664;23.346;2023-10-09T07:42:04;95387.06;;;22.06;33.97
6680;BME280;3376;42.664;23.346;2023-10-09T07:44:45;95390.25;;;22.38;33.30
6680;BME280;3376;42.664;23.346;2023-10-09T07:47:18;95295.13;;;21.32;33.77
6680;BME280;3376;42.664;23.346;2023-10-09T07:50:11;95389.53;;;21.89;32.18
6680;BME280;3376;42.664;23.346;2023-10-09T07:52:47;95390.53;;;21.41;32.29
6680;BME280;3376;42.664;23.346;2023-10-09T07:55:15;95375.50;;;21.41;32.49
6680;BME280;3376;42.664;23.346;2023-10-09T07:57:52;95389.00;;;21.15;32.36
6680;BME280;3376;42.664;23.346;2023-10-09T08:00:18;95393.75;;;21.25;32.55
6680;BME280;3376;42.664;23.346;2023-10-09T08:03:23;95384.38;;;21.11;32.40
6680;BME280;3376;42.664;23.346;2023-10-09T08:05:50;95401.06;;;21.23;32.33
6680;BME280;3376;42.664;23.346;2023-10-09T08:08:20;95396.31;;;21.49;32.27
6680;BME280;3376;42.664;23.346;2023-10-09T08:11:01;95273.53;;;21.24;31.60
6680;BME280;3376;42.664;23.346;2023-10-09T08:13:53;95384.34;;;21.83;31.92
6680;BME280;3376;42.664;23.346;2023-10-09T08:16:26;95374.72;;;21.70;32.01
6680;BME280;3376;42.664;23.346;2023-10-09T08:19:02;95389.53;;;21.89;31.86
6680;BME280;3376;42.664;23.346;2023-10-09T08:21:46;95371.75;;;22.38;31.27
6680;BME280;3376;42.664;23.346;2023-10-09T08:24:34;95390.03;;;22.09;31.10
6680;BME280;3376;42.664;23.346;2023-10-09T08:27:07;95386.44;;;21.74;31.10
6680;BME280;3376;42.664;23.346;2023-10-09T08:29:51;95373.72;;;21.71;31.42
6680;BME280;3376;42.664;23.346;2023-10-09T08:32:38;95384.88;;;21.55;31.08
6680;BME280;3376;42.664;23.346;2023-10-09T08:35:05;95367.84;;;21.22;30.87
6680;BME280;3376;42.664;23.346;2023-10-09T08:37:44;95368.78;;;21.27;31.42
6680;BME280;3376;42.664;23.346;2023-10-09T08:40:16;95356.47;;;21.39;32.28
6680;BME280;3376;42.664;23.346;2023-10-09T08:42:52;95351.88;;;21.82;31.16
6680;BME280;3376;42.664;23.346;2023-10-09T08:45:21;95355.81;;;21.91;30.62
6680;BME280;3376;42.664;23.346;2023-10-09T08:47:51;95353.13;;;22.21;30.88
6680;BME280;3376;42.664;23.346;2023-10-09T08:50:20;95357.31;;;22.52;30.49
6680;BME280;3376;42.664;23.346;2023-10-09T08:52:48;95349.53;;;23.03;30.05
6680;BME280;3376;42.664;23.346;2023-10-09T08:55:16;95357.56;;;22.85;28.70
6680;BME280;3376;42.664;23.346;2023-10-09T08:57:44;95345.06;;;23.03;29.30
6680;BME280;3376;42.664;23.346;2023-10-09T09:00:16;95343.13;;;22.76;29.42
6680;BME280;3376;42.664;23.346;2023-10-09T09:02:47;95334.50;;;22.57;29.20
6680;BME280;3376;42.664;23.346;2023-10-09T09:05:17;95309.53;;;22.42;29.02
6680;BME280;3376;42.664;23.346;2023-10-09T09:07:44;95324.47;;;22.48;28.68
6680;BME280;3376;42.664;23.346;2023-10-09T09:10:11;95333.16;;;22.25;29.21
6680;BME280;3376;42.664;23.346;2023-10-09T09:12:45;95326.44;;;21.99;28.80
6680;BME280;3376;42.664;23.346;2023-10-09T09:15:14;95334.41;;;22.11;28.12
6680;BME280;3376;42.664;23.346;2023-10-09T09:17:45;95335.41;;;21.98;29.11
6680;BME280;3376;42.664;23.346;2023-10-09T09:20:21;95342.16;;;21.94;28.37
6680;BME280;3376;42.664;23.346;2023-10-09T09:22:54;95335.50;;;21.92;28.39
6680;BME280;3376;42.664;23.346;2023-10-09T09:25:22;95308.53;;;21.78;28.54
6680;BME280;3376;42.664;23.346;2023-10-09T09:27:52;95328.56;;;22.32;28.78
6680;BME280;3376;42.664;23.346;2023-10-09T09:30:25;95319.66;;;22.68;28.12
6680;BME280;3376;42.664;23.346;2023-10-09T09:32:58;95327.25;;;22.76;26.90
6680;BME280;3376;42.664;23.346;2023-10-09T09:35:59;95328.03;;;22.76;27.63
6680;BME280;3376;42.664;23.346;2023-10-09T09:38:28;95296.09;;;22.89;26.99
6680;BME280;3376;42.664;23.346;2023-10-09T09:41:08;95310.41;;;23.28;26.37
6680;BME280;3376;42.664;23.346;2023-10-09T09:43:37;95319.59;;;23.37;26.68
6680;BME280;3376;42.664;23.346;2023-10-09T09:46:07;95313.63;;;23.30;26.36
6680;BME280;3376;42.664;23.346;2023-10-09T09:48:37;95318.38;;;23.56;26.67
6680;BME280;3376;42.664;23.346;2023-10-09T09:51:05;95321.44;;;23.25;26.04
6680;BME280;3376;42.664;23.346;2023-10-09T09:53:34;95311.66;;;23.25;26.27
6680;BME280;3376;42.664;23.346;2023-10-09T09:56:03;95278.50;;;23.06;25.62
6680;BME280;3376;42.664;23.346;2023-10-09T09:58:31;95295.06;;;23.02;26.25
6680;BME280;3376;42.664;23.346;2023-10-09T10:01:10;95300.56;;;23.00;25.55
6680;BME280;3376;42.664;23.346;2023-10-09T10:03:45;95296.78;;;22.96;25.27
6680;BME280;3376;42.664;23.346;2023-10-09T10:06:14;95282.19;;;22.94;25.99
6680;BME280;3376;42.664;23.346;2023-10-09T10:08:44;95285.91;;;23.21;25.72
6680;BME280;3376;42.664;23.346;2023-10-09T10:11:43;95270.41;;;23.13;25.58
6680;BME280;3376;42.664;23.346;2023-10-09T10:14:11;95269.34;;;23.25;25.78
6680;BME280;3376;42.664;23.346;2023-10-09T10:17:07;95259.19;;;23.46;25.57
6680;BME280;3376;42.664;23.346;2023-10-09T10:20:01;95258.88;;;23.59;24.78
6680;BME280;3376;42.664;23.346;2023-10-09T10:22:51;95256.88;;;23.49;24.92
6680;BME280;3376;42.664;23.346;2023-10-09T10:25:33;95255.53;;;23.63;25.06
6680;BME280;3376;42.664;23.346;2023-10-09T10:28:17;95250.50;;;23.62;25.27
6680;BME280;3376;42.664;23.346;2023-10-09T10:30:54;95237.13;;;23.40;26.34
6680;BME280;3376;42.664;23.346;2023-10-09T10:33:22;95224.56;;;23.19;25.49
6680;BME280;3376;42.664;23.346;2023-10-09T10:35:51;95225.94;;;23.50;25.05
6680;BME280;3376;42.664;23.346;2023-10-09T10:38:25;95213.50;;;23.50;24.71
6680;BME280;3376;42.664;23.346;2023-10-09T10:41:11;95203.66;;;23.62;24.45
6680;BME280;3376;42.664;23.346;2023-10-09T10:43:40;95212.44;;;23.96;24.40
6680;BME280;3376;42.664;23.346;2023-10-09T10:46:24;95205.56;;;24.11;24.26
6680;BME280;3376;42.664;23.346;2023-10-09T10:49:02;95197.31;;;24.29;24.84
6680;BME280;3376;42.664;23.346;2023-10-09T10:51:40;95191.13;;;24.40;24.14
6680;BME280;3376;42.664;23.346;2023-10-09T10:54:20;95173.06;;;24.37;23.65
6680;BME280;3376;42.664;23.346;2023-10-09T10:57:18;95188.72;;;24.77;23.83
6680;BME280;3376;42.664;23.346;2023-10-09T10:59:54;95187.53;;;24.68;24.67
6680;BME280;3376;42.664;23.346;2023-10-09T11:02:39;95185.69;;;24.69;24.51
6680;BME280;3376;42.664;23.346;2023-10-09T11:05:07;95177.84;;;24.57;24.43
6680;BME280;3376;42.664;23.346;2023-10-09T11:07:50;95188.06;;;24.87;24.26
6680;BME280;3376;42.664;23.346;2023-10-09T11:10:22;95176.13;;;24.89;24.27
6680;BME280;3376;42.664;23.346;2023-10-09T11:12:54;95197.91;;;24.70;24.62
6680;BME280;3376;42.664;23.346;2023-10-09T11:15:47;95170.13;;;24.56;24.26
6680;BME280;3376;42.664;23.346;2023-10-09T11:18:22;95163.78;;;24.57;25.60
6680;BME280;3376;42.664;23.346;2023-10-09T11:20:54;95150.94;;;24.87;24.16
6680;BME280;3376;42.664;23.346;2023-10-09T11:23:45;95153.94;;;24.95;24.21
6680;BME280;3376;42.664;23.346;2023-10-09T11:26:24;95137.38;;;24.83;24.45
6680;BME280;3376;42.664;23.346;2023-10-09T11:29:07;95130.69;;;25.02;26.11
6680;BME280;3376;42.664;23.346;2023-10-09T11:31:39;95132.28;;;25.30;24.75
6680;BME280;3376;42.664;23.346;2023-10-09T11:34:18;95139.38;;;25.51;24.08
6680;BME280;3376;42.664;23.346;2023-10-09T11:36:56;95137.16;;;25.38;23.84
6680;BME280;3376;42.664;23.346;2023-10-09T11:39:25;95136.84;;;25.34;23.80
6680;BME280;3376;42.664;23.346;2023-10-09T11:42:03;95135.22;;;25.07;24.20
6680;BME280;3376;42.664;23.346;2023-10-09T11:44:38;95120.34;;;24.79;24.29
6680;BME280;3376;42.664;23.346;2023-10-09T11:47:11;95103.84;;;24.51;24.92
6680;BME280;3376;42.664;23.346;2023-10-09T11:49:51;95116.56;;;24.97;24.50
6680;BME280;3376;42.664;23.346;2023-10-09T11:52:55;95111.50;;;25.22;23.68
6680;BME280;3376;42.664;23.346;2023-10-09T11:55:40;95106.81;;;25.29;23.73
6680;BME280;3376;42.664;23.346;2023-10-09T11:58:06;95098.25;;;25.22;23.79
6680;BME280;3376;42.664;23.346;2023-10-09T12:00:34;95090.03;;;25.50;23.36
6680;BME280;3376;42.664;23.346;2023-10-09T12:03:11;95090.34;;;25.53;23.52
6680;BME280;3376;42.664;23.346;2023-10-09T12:05:40;95095.31;;;25.45;23.41
6680;BME280;3376;42.664;23.346;2023-10-09T12:08:11;95080.47;;;25.49;23.54
6680;BME280;3376;42.664;23.346;2023-10-09T12:10:41;95076.16;;;25.16;23.59
6680;BME280;3376;42.664;23.346;2023-10-09T12:13:08;95067.69;;;25.14;23.86
6680;BME280;3376;42.664;23.346;2023-10-09T12:15:35;95072.56;;;25.27;23.74
6680;BME280;3376;42.664;23.346;2023-10-09T12:18:06;95058.00;;;25.30;23.53
6680;BME280;3376;42.664;23.346;2023-10-09T12:20:40;95068.84;;;25.28;23.89
6680;BME280;3376;42.664;23.346;2023-10-09T12:23:07;95060.66;;;25.30;23.80
6680;BME280;3376;42.664;23.346;2023-10-09T12:25:40;95069.81;;;25.44;22.88
6680;BME280;3376;42.664;23.346;2023-10-09T12:28:11;95068.22;;;25.43;23.25
6680;BME280;3376;42.664;23.346;2023-10-09T12:30:38;95057.06;;;25.41;23.44
6680;BME280;3376;42.664;23.346;2023-10-09T12:33:05;95049.59;;;25.75;23.32
6680;BME280;3376;42.664;23.346;2023-10-09T12:35:36;95046.22;;;25.89;22.44
6680;BME280;3376;42.664;23.346;2023-10-09T12:38:03;95045.34;;;25.74;22.89
6680;BME280;3376;42.664;23.346;2023-10-09T12:40:34;95046.94;;;25.75;22.76
6680;BME280;3376;42.664;23.346;2023-10-09T12:43:03;95036.84;;;25.77;22.76
6680;BME280;3376;42.664;23.346;2023-10-09T12:45:33;95029.69;;;25.77;21.87
6680;BME280;3376;42.664;23.346;2023-10-09T12:48:01;95029.19;;;25.80;21.35
6680;BME280;3376;42.664;23.346;2023-10-09T12:50:34;95008.84;;;25.54;21.70
6680;BME280;3376;42.664;23.346;2023-10-09T12:53:07;95020.19;;;25.81;21.39
6680;BME280;3376;42.664;23.346;2023-10-09T12:55:38;95021.34;;;25.53;20.70
6680;BME280;3376;42.664;23.346;2023-10-09T12:58:09;95019.25;;;25.61;20.76
6680;BME280;3376;42.664;23.346;2023-10-09T13:00:40;95011.38;;;25.76;20.50
6680;BME280;3376;42.664;23.346;2023-10-09T13:03:14;95020.75;;;25.88;20.32
6680;BME280;3376;42.664;23.346;2023-10-09T13:05:46;95002.63;;;25.80;19.64
6680;BME280;3376;42.664;23.346;2023-10-09T13:08:21;95006.38;;;25.84;19.31
6680;BME280;3376;42.664;23.346;2023-10-09T13:10:52;94999.25;;;25.48;20.19
6680;BME280;3376;42.664;23.346;2023-10-09T13:13:28;94991.13;;;25.23;20.31
6680;BME280;3376;42.664;23.346;2023-10-09T13:16:06;94997.09;;;25.40;20.82
6680;BME280;3376;42.664;23.346;2023-10-09T13:18:33;94989.47;;;25.48;21.00
6680;BME280;3376;42.664;23.346;2023-10-09T13:21:00;94987.41;;;25.61;21.98
6680;BME280;3376;42.664;23.346;2023-10-09T13:23:29;94985.63;;;25.76;21.41
6680;BME280;3376;42.664;23.346;2023-10-09T13:26:05;94984.81;;;25.71;21.82
6680;BME280;3376;42.664;23.346;2023-10-09T13:28:45;94981.69;;;25.84;21.30
6680;BME280;3376;42.664;23.346;2023-10-09T13:31:12;94976.09;;;25.80;21.29
6680;BME280;3376;42.664;23.346;2023-10-09T13:33:41;94967.47;;;25.58;20.60
6680;BME280;3376;42.664;23.346;2023-10-09T13:36:08;94973.81;;;25.52;19.84
6680;BME280;3376;42.664;23.346;2023-10-09T13:38:43;94980.50;;;25.23;19.76
6680;BME280;3376;42.664;23.346;2023-10-09T13:41:10;94954.41;;;25.10;19.30
6680;BME280;3376;42.664;23.346;2023-10-09T13:43:44;94967.66;;;25.41;20.45
6680;BME280;3376;42.664;23.346;2023-10-09T13:46:12;94967.19;;;25.54;20.69
6680;BME280;3376;42.664;23.346;2023-10-09T13:48:40;94964.00;;;25.52;20.34
6680;BME280;3376;42.664;23.346;2023-10-09T13:51:09;94961.78;;;25.39;19.99
6680;BME280;3376;42.664;23.346;2023-10-09T13:53:40;94958.94;;;25.51;20.45
6680;BME280;3376;42.664;23.346;2023-10-09T13:56:12;94962.72;;;25.23;20.96
6680;BME280;3376;42.664;23.346;2023-10-09T13:58:45;94956.22;;;25.41;19.91